createdAt,value
2016-12-27T00:03:57.536Z,50.9
2016-12-27T00:09:00.484Z,51
2016-12-27T00:14:03.428Z,51.1
2016-12-27T00:19:06.377Z,51.2
2016-12-27T00:24:09.422Z,51.2
2016-12-27T00:29:12.369Z,51.2
2016-12-27T00:34:15.315Z,51.2
2016-12-27T00:39:18.282Z,51.2
2016-12-27T00:44:21.218Z,51.1
2016-12-27T00:49:24.152Z,51.1
2016-12-27T00:54:27.102Z,51.1
2016-12-27T00:59:30.054Z,51.1
2016-12-27T01:04:32.988Z,51.1
2016-12-27T01:09:35.937Z,51.1
2016-12-27T01:14:38.869Z,51.1
2016-12-27T01:19:41.836Z,51
2016-12-27T01:24:44.792Z,51.1
2016-12-27T01:29:47.713Z,51.1
2016-12-27T01:34:50.669Z,51.1
2016-12-27T01:39:53.598Z,51.2
2016-12-27T01:44:56.532Z,51.2
2016-12-27T01:49:59.492Z,51.2
2016-12-27T01:55:02.479Z,51.1
2016-12-27T02:00:05.427Z,51.1
2016-12-27T02:05:08.370Z,51.1
2016-12-27T02:10:11.313Z,51
2016-12-27T02:15:14.259Z,51
2016-12-27T02:20:17.207Z,51
2016-12-27T02:25:20.189Z,50.9
2016-12-27T02:30:23.139Z,50.8
2016-12-27T02:35:26.083Z,50.8
2016-12-27T02:40:29.018Z,50.9
2016-12-27T02:45:31.945Z,50.9
2016-12-27T02:50:34.899Z,50.9
2016-12-27T02:55:37.827Z,50.9
2016-12-27T03:00:40.768Z,50.8
2016-12-27T03:05:43.714Z,50.8
2016-12-27T03:10:46.664Z,50.9
2016-12-27T03:15:49.602Z,50.9
2016-12-27T03:20:52.552Z,50.9
2016-12-27T03:25:55.491Z,51
2016-12-27T03:30:58.631Z,50.8
2016-12-27T03:36:01.919Z,50.9
2016-12-27T03:41:04.847Z,50.8
2016-12-27T03:46:07.778Z,50.9
2016-12-27T03:51:10.707Z,50.9
2016-12-27T03:56:13.660Z,50.9
2016-12-27T04:01:16.594Z,50.8
2016-12-27T04:06:19.546Z,50.7
2016-12-27T04:11:22.488Z,50.8
2016-12-27T04:16:25.418Z,50.8
2016-12-27T04:21:28.359Z,50.9
2016-12-27T04:26:31.289Z,50.8
2016-12-27T04:31:34.232Z,50.8
2016-12-27T04:36:37.182Z,50.9
2016-12-27T04:41:40.119Z,51
2016-12-27T04:46:43.083Z,51
2016-12-27T04:51:46.030Z,51
2016-12-27T04:56:48.973Z,51
2016-12-27T05:01:51.916Z,51
2016-12-27T05:06:54.877Z,51
2016-12-27T05:11:57.817Z,51
2016-12-27T05:17:00.764Z,50.9
2016-12-27T05:22:03.708Z,50.9
2016-12-27T05:27:06.642Z,50.9
2016-12-27T05:32:09.579Z,50.9
2016-12-27T05:37:12.526Z,51
2016-12-27T05:42:15.462Z,51
2016-12-27T05:47:18.411Z,51
2016-12-27T05:52:21.362Z,51
2016-12-27T05:57:24.313Z,51.1
2016-12-27T06:02:27.242Z,51.1
2016-12-27T06:07:30.182Z,51
2016-12-27T06:12:33.148Z,51
2016-12-27T06:17:36.090Z,51.1
2016-12-27T06:22:39.028Z,51.2
2016-12-27T06:27:41.983Z,51.2
2016-12-27T06:32:44.924Z,51.2
2016-12-27T06:37:47.884Z,51.2
2016-12-27T06:42:50.812Z,51.2
2016-12-27T06:47:53.743Z,51.3
2016-12-27T06:52:56.712Z,51.4
2016-12-27T06:57:59.642Z,51.2
2016-12-27T07:03:02.596Z,51.3
2016-12-27T07:08:05.547Z,51.2
2016-12-27T07:13:08.474Z,51.1
2016-12-27T07:18:11.413Z,51.1
2016-12-27T07:23:14.348Z,51.1
2016-12-27T07:28:17.308Z,51
2016-12-27T07:33:20.250Z,51
2016-12-27T07:38:23.178Z,51.1
2016-12-27T07:43:26.114Z,51.1
2016-12-27T07:48:29.046Z,51
2016-12-27T07:53:31.980Z,51
2016-12-27T07:58:34.915Z,51.1
2016-12-27T08:03:37.884Z,51.1
2016-12-27T08:08:40.829Z,51.2
2016-12-27T08:13:43.767Z,51.2
2016-12-27T08:18:46.721Z,51.3
2016-12-27T08:23:49.670Z,51.3
2016-12-27T08:28:52.608Z,51.2
2016-12-27T08:33:55.552Z,51.2
2016-12-27T08:39:16.481Z,47.9
2016-12-27T08:44:26.749Z,45.3
2016-12-27T08:49:30.354Z,46
2016-12-27T08:54:33.424Z,47.3
2016-12-27T08:59:36.424Z,47.9
2016-12-27T09:04:39.371Z,47.8
2016-12-27T09:09:42.490Z,45
2016-12-27T09:14:45.427Z,42.9
2016-12-27T09:19:48.435Z,42.2
2016-12-27T09:24:51.386Z,41.9
2016-12-27T09:29:54.336Z,41.9
2016-12-27T09:34:57.279Z,41.6
2016-12-27T09:40:00.272Z,41.7
2016-12-27T09:45:03.205Z,41.6
2016-12-27T09:50:06.156Z,41.6
2016-12-27T09:55:09.112Z,42.2
2016-12-27T10:00:12.035Z,44.6
2016-12-27T10:05:14.947Z,45.5
2016-12-27T10:10:17.865Z,46
2016-12-27T10:15:20.816Z,47.4
2016-12-27T10:20:23.738Z,48.3
2016-12-27T10:25:26.685Z,42.4
2016-12-27T10:26:45.237Z,42.3
2016-12-27T10:27:25.607Z,42.4
2016-12-27T10:32:28.755Z,42.5
2016-12-27T10:37:31.713Z,42.9
2016-12-27T10:42:34.746Z,43.7
2016-12-27T10:47:37.768Z,44.1
2016-12-27T10:52:40.737Z,45
2016-12-27T14:17:30.056Z,44.1
2016-12-27T14:17:47.774Z,44.1
2016-12-27T14:22:50.799Z,44.7
2016-12-27T14:27:54.084Z,44.9
2016-12-27T14:32:57.759Z,45
2016-12-27T14:38:02.447Z,45.2
2016-12-27T14:43:06.177Z,45.3
2016-12-27T14:48:09.649Z,45.5
2016-12-27T14:53:12.587Z,45.7
2016-12-27T17:49:31.116Z,48
2016-12-27T17:49:48.933Z,48.1
2016-12-27T17:54:51.840Z,48.5
2016-12-27T17:59:54.722Z,48.6
2016-12-27T18:04:57.588Z,48.8
2016-12-27T18:10:00.831Z,48.8
2016-12-27T22:48:39.579Z,49.4
2016-12-27T22:53:42.784Z,49.1
2016-12-27T22:58:45.944Z,49.2
2016-12-27T23:03:49.072Z,49.3
2016-12-27T23:09:27.325Z,49.4
2016-12-27T23:14:40.145Z,49.5
2016-12-27T23:19:43.274Z,49.5
2016-12-27T23:24:46.580Z,49.5
2016-12-27T23:29:49.704Z,49.6
2016-12-27T23:30:09.518Z,49.6
